sensor_id;sensor_type;location;lat;lon;timestamp;pressure;altitude;pressure_sealevel;temperature
20103;BMP180;10210;52.284;9.892;2023-12-20T00:01:36;100061.00;;;11.50
20103;BMP180;10210;52.284;9.892;2023-12-20T00:04:03;100051.00;;;11.50
20103;BMP180;10210;52.284;9.892;2023-12-20T00:06:29;100051.00;;;11.50
20103;BMP180;10210;52.284;9.892;2023-12-20T00:08:55;100066.00;;;11.50
20103;BMP180;10210;52.284;9.892;2023-12-20T00:11:21;100061.00;;;11.50
20103;BMP180;10210;52.284;9.892;2023-12-20T00:13:47;100065.00;;;11.50
20103;BMP180;10210;52.284;9.892;2023-12-20T00:16:13;100057.00;;;11.50
20103;BMP180;10210;52.284;9.892;2023-12-20T00:18:39;100057.00;;;11.50
20103;BMP180;10210;52.284;9.892;2023-12-20T00:21:04;100051.00;;;11.40
20103;BMP180;10210;52.284;9.892;2023-12-20T00:23:30;100057.00;;;11.40
20103;BMP180;10210;52.284;9.892;2023-12-20T00:25:55;100059.00;;;11.40
20103;BMP180;10210;52.284;9.892;2023-12-20T00:28:21;100062.00;;;11.40
20103;BMP180;10210;52.284;9.892;2023-12-20T00:30:48;100052.00;;;11.40
20103;BMP180;10210;52.284;9.892;2023-12-20T00:33:13;100054.00;;;11.30
20103;BMP180;10210;52.284;9.892;2023-12-20T00:35:39;100056.00;;;11.30
20103;BMP180;10210;52.284;9.892;2023-12-20T00:38:05;100080.00;;;11.30
20103;BMP180;10210;52.284;9.892;2023-12-20T00:40:32;100066.00;;;11.30
20103;BMP180;10210;52.284;9.892;2023-12-20T00:42:58;100077.00;;;11.30
20103;BMP180;10210;52.284;9.892;2023-12-20T00:45:24;100063.00;;;11.20
20103;BMP180;10210;52.284;9.892;2023-12-20T00:47:49;100067.00;;;11.20
20103;BMP180;10210;52.284;9.892;2023-12-20T00:50:15;100068.00;;;11.20
20103;BMP180;10210;52.284;9.892;2023-12-20T00:52:41;100084.00;;;11.20
20103;BMP180;10210;52.284;9.892;2023-12-20T00:55:07;100083.00;;;11.20
20103;BMP180;10210;52.284;9.892;2023-12-20T00:57:33;100079.00;;;11.10
20103;BMP180;10210;52.284;9.892;2023-12-20T00:59:59;100081.00;;;11.10
20103;BMP180;10210;52.284;9.892;2023-12-20T01:02:25;100077.00;;;11.10
20103;BMP180;10210;52.284;9.892;2023-12-20T01:04:50;100074.00;;;11.00
20103;BMP180;10210;52.284;9.892;2023-12-20T01:07:16;100066.00;;;11.00
20103;BMP180;10210;52.284;9.892;2023-12-20T01:09:42;100069.00;;;11.00
20103;BMP180;10210;52.284;9.892;2023-12-20T01:12:07;100067.00;;;11.00
20103;BMP180;10210;52.284;9.892;2023-12-20T01:14:33;100066.00;;;11.00
20103;BMP180;10210;52.284;9.892;2023-12-20T01:16:59;100065.00;;;11.00
20103;BMP180;10210;52.284;9.892;2023-12-20T01:19:25;100069.00;;;11.00
20103;BMP180;10210;52.284;9.892;2023-12-20T01:21:52;100062.00;;;10.90
20103;BMP180;10210;52.284;9.892;2023-12-20T01:24:18;100067.00;;;10.90
20103;BMP180;10210;52.284;9.892;2023-12-20T01:26:43;100081.00;;;10.90
20103;BMP180;10210;52.284;9.892;2023-12-20T01:29:09;100068.00;;;10.90
20103;BMP180;10210;52.284;9.892;2023-12-20T01:31:35;100064.00;;;10.90
20103;BMP180;10210;52.284;9.892;2023-12-20T01:34:00;100075.00;;;10.90
20103;BMP180;10210;52.284;9.892;2023-12-20T01:36:27;100066.00;;;10.90
20103;BMP180;10210;52.284;9.892;2023-12-20T01:38:53;100065.00;;;10.80
20103;BMP180;10210;52.284;9.892;2023-12-20T01:41:18;100065.00;;;10.90
20103;BMP180;10210;52.284;9.892;2023-12-20T01:43:44;100066.00;;;10.80
20103;BMP180;10210;52.284;9.892;2023-12-20T01:46:10;100084.00;;;10.80
20103;BMP180;10210;52.284;9.892;2023-12-20T01:48:37;100075.00;;;10.80
20103;BMP180;10210;52.284;9.892;2023-12-20T01:51:04;100086.00;;;10.80
20103;BMP180;10210;52.284;9.892;2023-12-20T01:53:31;100078.00;;;10.80
20103;BMP180;10210;52.284;9.892;2023-12-20T01:55:58;100089.00;;;10.80
20103;BMP180;10210;52.284;9.892;2023-12-20T01:58:26;100077.00;;;10.70
20103;BMP180;10210;52.284;9.892;2023-12-20T02:00:54;100089.00;;;10.70
20103;BMP180;10210;52.284;9.892;2023-12-20T02:03:20;100080.00;;;10.70
20103;BMP180;10210;52.284;9.892;2023-12-20T02:05:47;100085.00;;;10.70
20103;BMP180;10210;52.284;9.892;2023-12-20T02:08:13;100074.00;;;10.70
20103;BMP180;10210;52.284;9.892;2023-12-20T02:10:40;100082.00;;;10.70
20103;BMP180;10210;52.284;9.892;2023-12-20T02:13:06;100086.00;;;10.70
20103;BMP180;10210;52.284;9.892;2023-12-20T02:15:32;100086.00;;;10.60
20103;BMP180;10210;52.284;9.892;2023-12-20T02:17:57;100078.00;;;10.60
20103;BMP180;10210;52.284;9.892;2023-12-20T02:20:23;100090.00;;;10.60
20103;BMP180;10210;52.284;9.892;2023-12-20T02:22:49;100081.00;;;10.60
20103;BMP180;10210;52.284;9.892;2023-12-20T02:25:14;100077.00;;;10.50
20103;BMP180;10210;52.284;9.892;2023-12-20T02:27:40;100083.00;;;10.50
20103;BMP180;10210;52.284;9.892;2023-12-20T02:30:06;100076.00;;;10.50
20103;BMP180;10210;52.284;9.892;2023-12-20T02:32:32;100062.00;;;10.50
20103;BMP180;10210;52.284;9.892;2023-12-20T02:34:58;100056.00;;;10.50
20103;BMP180;10210;52.284;9.892;2023-12-20T02:37:24;100050.00;;;10.50
20103;BMP180;10210;52.284;9.892;2023-12-20T02:39:50;100056.00;;;10.50
20103;BMP180;10210;52.284;9.892;2023-12-20T02:42:15;100047.00;;;10.50
20103;BMP180;10210;52.284;9.892;2023-12-20T02:44:41;100052.00;;;10.50
20103;BMP180;10210;52.284;9.892;2023-12-20T02:47:06;100056.00;;;10.50
20103;BMP180;10210;52.284;9.892;2023-12-20T02:49:32;100063.00;;;10.50
20103;BMP180;10210;52.284;9.892;2023-12-20T02:51:58;100063.00;;;10.50
20103;BMP180;10210;52.284;9.892;2023-12-20T02:54:23;100066.00;;;10.50
20103;BMP180;10210;52.284;9.892;2023-12-20T02:56:49;100069.00;;;10.40
20103;BMP180;10210;52.284;9.892;2023-12-20T02:59:15;100065.00;;;10.40
20103;BMP180;10210;52.284;9.892;2023-12-20T03:01:45;100049.00;;;10.40
20103;BMP180;10210;52.284;9.892;2023-12-20T03:04:12;100040.00;;;10.40
20103;BMP180;10210;52.284;9.892;2023-12-20T03:06:38;100051.00;;;10.40
20103;BMP180;10210;52.284;9.892;2023-12-20T03:09:04;100053.00;;;10.40
20103;BMP180;10210;52.284;9.892;2023-12-20T03:11:30;100061.00;;;10.40
20103;BMP180;10210;52.284;9.892;2023-12-20T03:13:57;100044.00;;;10.40
20103;BMP180;10210;52.284;9.892;2023-12-20T03:16:23;100047.00;;;10.30
20103;BMP180;10210;52.284;9.892;2023-12-20T03:18:49;100039.00;;;10.30
20103;BMP180;10210;52.284;9.892;2023-12-20T03:21:15;100027.00;;;10.30
20103;BMP180;10210;52.284;9.892;2023-12-20T03:23:41;100024.00;;;10.30
20103;BMP180;10210;52.284;9.892;2023-12-20T03:26:08;100027.00;;;10.30
20103;BMP180;10210;52.284;9.892;2023-12-20T03:28:34;100029.00;;;10.30
20103;BMP180;10210;52.284;9.892;2023-12-20T03:31:00;100028.00;;;10.30
20103;BMP180;10210;52.284;9.892;2023-12-20T03:33:27;100029.00;;;10.30
20103;BMP180;10210;52.284;9.892;2023-12-20T03:35:53;100009.00;;;10.30
20103;BMP180;10210;52.284;9.892;2023-12-20T03:38:18;99996.00;;;10.30
20103;BMP180;10210;52.284;9.892;2023-12-20T03:40:44;99984.00;;;10.20
20103;BMP180;10210;52.284;9.892;2023-12-20T03:43:10;100007.00;;;10.30
20103;BMP180;10210;52.284;9.892;2023-12-20T03:45:35;99998.00;;;10.20
20103;BMP180;10210;52.284;9.892;2023-12-20T03:48:01;99995.00;;;10.20
20103;BMP180;10210;52.284;9.892;2023-12-20T03:50:27;99998.00;;;10.20
20103;BMP180;10210;52.284;9.892;2023-12-20T03:52:53;100001.00;;;10.20
20103;BMP180;10210;52.284;9.892;2023-12-20T03:55:19;99995.00;;;10.20
20103;BMP180;10210;52.284;9.892;2023-12-20T03:57:44;99998.00;;;10.20
20103;BMP180;10210;52.284;9.892;2023-12-20T04:00:11;99996.00;;;10.20
20103;BMP180;10210;52.284;9.892;2023-12-20T04:02:38;100004.00;;;10.20
20103;BMP180;10210;52.284;9.892;2023-12-20T04:05:06;99999.00;;;10.20
20103;BMP180;10210;52.284;9.892;2023-12-20T04:07:32;99990.00;;;10.20
20103;BMP180;10210;52.284;9.892;2023-12-20T04:09:58;99982.00;;;10.20
20103;BMP180;10210;52.284;9.892;2023-12-20T04:12:24;99995.00;;;10.20
20103;BMP180;10210;52.284;9.892;2023-12-20T04:14:50;99994.00;;;10.20
20103;BMP180;10210;52.284;9.892;2023-12-20T04:17:16;99988.00;;;10.20
20103;BMP180;10210;52.284;9.892;2023-12-20T04:19:42;99982.00;;;10.20
20103;BMP180;10210;52.284;9.892;2023-12-20T04:22:08;99984.00;;;10.20
20103;BMP180;10210;52.284;9.892;2023-12-20T04:24:34;99998.00;;;10.20
20103;BMP180;10210;52.284;9.892;2023-12-20T04:27:00;99989.00;;;10.20
20103;BMP180;10210;52.284;9.892;2023-12-20T04:29:27;99998.00;;;10.20
20103;BMP180;10210;52.284;9.892;2023-12-20T04:31:53;99998.00;;;10.20
20103;BMP180;10210;52.284;9.892;2023-12-20T04:34:19;99980.00;;;10.20
20103;BMP180;10210;52.284;9.892;2023-12-20T04:36:45;99989.00;;;10.20
20103;BMP180;10210;52.284;9.892;2023-12-20T04:39:14;99981.00;;;10.20
20103;BMP180;10210;52.284;9.892;2023-12-20T04:41:40;99978.00;;;10.20
20103;BMP180;10210;52.284;9.892;2023-12-20T04:44:06;99981.00;;;10.30
20103;BMP180;10210;52.284;9.892;2023-12-20T04:46:32;99977.00;;;10.30
20103;BMP180;10210;52.284;9.892;2023-12-20T04:48:58;99968.00;;;10.30
20103;BMP180;10210;52.284;9.892;2023-12-20T04:51:24;99967.00;;;10.30
20103;BMP180;10210;52.284;9.892;2023-12-20T04:53:49;99970.00;;;10.30
20103;BMP180;10210;52.284;9.892;2023-12-20T04:56:15;99981.00;;;10.30
20103;BMP180;10210;52.284;9.892;2023-12-20T04:58:42;99974.00;;;10.30
20103;BMP180;10210;52.284;9.892;2023-12-20T05:01:09;99971.00;;;10.30
20103;BMP180;10210;52.284;9.892;2023-12-20T05:03:35;99978.00;;;10.30
20103;BMP180;10210;52.284;9.892;2023-12-20T05:06:01;99971.00;;;10.30
20103;BMP180;10210;52.284;9.892;2023-12-20T05:08:27;99976.00;;;10.30
20103;BMP180;10210;52.284;9.892;2023-12-20T05:10:54;99980.00;;;10.30
20103;BMP180;10210;52.284;9.892;2023-12-20T05:13:21;99974.00;;;10.30
20103;BMP180;10210;52.284;9.892;2023-12-20T05:15:46;99962.00;;;10.30
20103;BMP180;10210;52.284;9.892;2023-12-20T05:18:12;99955.00;;;10.30
20103;BMP180;10210;52.284;9.892;2023-12-20T05:20:39;99967.00;;;10.30
20103;BMP180;10210;52.284;9.892;2023-12-20T05:23:04;99959.00;;;10.30
20103;BMP180;10210;52.284;9.892;2023-12-20T05:25:30;99968.00;;;10.40
20103;BMP180;10210;52.284;9.892;2023-12-20T05:27:56;99968.00;;;10.40
20103;BMP180;10210;52.284;9.892;2023-12-20T05:30:22;99976.00;;;10.40
20103;BMP180;10210;52.284;9.892;2023-12-20T05:32:48;99963.00;;;10.40
20103;BMP180;10210;52.284;9.892;2023-12-20T05:35:14;99960.00;;;10.40
20103;BMP180;10210;52.284;9.892;2023-12-20T05:37:41;99968.00;;;10.40
20103;BMP180;10210;52.284;9.892;2023-12-20T05:40:07;99970.00;;;10.40
20103;BMP180;10210;52.284;9.892;2023-12-20T05:42:36;99953.00;;;10.30
20103;BMP180;10210;52.284;9.892;2023-12-20T05:45:04;99962.00;;;10.30
20103;BMP180;10210;52.284;9.892;2023-12-20T05:47:30;99957.00;;;10.30
20103;BMP180;10210;52.284;9.892;2023-12-20T05:49:55;99952.00;;;10.30
20103;BMP180;10210;52.284;9.892;2023-12-20T05:52:21;99956.00;;;10.30
20103;BMP180;10210;52.284;9.892;2023-12-20T05:54:47;99964.00;;;10.30
20103;BMP180;10210;52.284;9.892;2023-12-20T05:57:13;99957.00;;;10.30
20103;BMP180;10210;52.284;9.892;2023-12-20T05:59:39;99960.00;;;10.30
20103;BMP180;10210;52.284;9.892;2023-12-20T06:02:05;99962.00;;;10.30
20103;BMP180;10210;52.284;9.892;2023-12-20T06:04:31;99963.00;;;10.30
20103;BMP180;10210;52.284;9.892;2023-12-20T06:06:58;99962.00;;;10.30
20103;BMP180;10210;52.284;9.892;2023-12-20T06:09:23;99959.00;;;10.30
20103;BMP180;10210;52.284;9.892;2023-12-20T06:11:50;99962.00;;;10.30
20103;BMP180;10210;52.284;9.892;2023-12-20T06:14:16;99969.00;;;10.30
20103;BMP180;10210;52.284;9.892;2023-12-20T06:16:42;99973.00;;;10.30
20103;BMP180;10210;52.284;9.892;2023-12-20T06:19:07;99965.00;;;10.30
20103;BMP180;10210;52.284;9.892;2023-12-20T06:21:33;99958.00;;;10.20
20103;BMP180;10210;52.284;9.892;2023-12-20T06:23:59;99958.00;;;10.30
20103;BMP180;10210;52.284;9.892;2023-12-20T06:26:25;99948.00;;;10.20
20103;BMP180;10210;52.284;9.892;2023-12-20T06:28:51;99953.00;;;10.20
20103;BMP180;10210;52.284;9.892;2023-12-20T06:31:16;99946.00;;;10.20
20103;BMP180;10210;52.284;9.892;2023-12-20T06:33:43;99955.00;;;10.20
20103;BMP180;10210;52.284;9.892;2023-12-20T06:36:13;99949.00;;;10.20
20103;BMP180;10210;52.284;9.892;2023-12-20T06:38:39;99962.00;;;10.20
20103;BMP180;10210;52.284;9.892;2023-12-20T06:41:05;99966.00;;;10.20
20103;BMP180;10210;52.284;9.892;2023-12-20T06:43:32;99966.00;;;10.20
20103;BMP180;10210;52.284;9.892;2023-12-20T06:46:01;99958.00;;;10.30
20103;BMP180;10210;52.284;9.892;2023-12-20T06:48:28;99957.00;;;10.30
20103;BMP180;10210;52.284;9.892;2023-12-20T06:50:55;99956.00;;;10.30
20103;BMP180;10210;52.284;9.892;2023-12-20T06:53:20;99952.00;;;10.30
20103;BMP180;10210;52.284;9.892;2023-12-20T06:55:46;99944.00;;;10.30
20103;BMP180;10210;52.284;9.892;2023-12-20T06:58:12;99950.00;;;10.30
20103;BMP180;10210;52.284;9.892;2023-12-20T07:00:37;99960.00;;;10.30
20103;BMP180;10210;52.284;9.892;2023-12-20T07:03:03;99938.00;;;10.30
20103;BMP180;10210;52.284;9.892;2023-12-20T07:05:29;99959.00;;;10.20
20103;BMP180;10210;52.284;9.892;2023-12-20T07:07:55;99959.00;;;10.20
20103;BMP180;10210;52.284;9.892;2023-12-20T07:10:20;99952.00;;;10.20
20103;BMP180;10210;52.284;9.892;2023-12-20T07:12:46;99954.00;;;10.20
20103;BMP180;10210;52.284;9.892;2023-12-20T07:15:12;99948.00;;;10.20
20103;BMP180;10210;52.284;9.892;2023-12-20T07:17:37;99948.00;;;10.20
20103;BMP180;10210;52.284;9.892;2023-12-20T07:20:04;99944.00;;;10.20
20103;BMP180;10210;52.284;9.892;2023-12-20T07:22:31;99940.00;;;10.20
20103;BMP180;10210;52.284;9.892;2023-12-20T07:24:58;99923.00;;;10.20
20103;BMP180;10210;52.284;9.892;2023-12-20T07:27:24;99933.00;;;10.20
20103;BMP180;10210;52.284;9.892;2023-12-20T07:29:50;99934.00;;;10.20
20103;BMP180;10210;52.284;9.892;2023-12-20T07:32:15;99926.00;;;10.20
20103;BMP180;10210;52.284;9.892;2023-12-20T07:34:42;99930.00;;;10.20
20103;BMP180;10210;52.284;9.892;2023-12-20T07:37:10;99936.00;;;10.20
20103;BMP180;10210;52.284;9.892;2023-12-20T07:39:39;99948.00;;;10.20
20103;BMP180;10210;52.284;9.892;2023-12-20T07:42:07;99934.00;;;10.20
20103;BMP180;10210;52.284;9.892;2023-12-20T07:44:34;99939.00;;;10.20
20103;BMP180;10210;52.284;9.892;2023-12-20T07:47:02;99945.00;;;10.20
20103;BMP180;10210;52.284;9.892;2023-12-20T07:49:28;99940.00;;;10.20
20103;BMP180;10210;52.284;9.892;2023-12-20T07:51:54;99948.00;;;10.20
20103;BMP180;10210;52.284;9.892;2023-12-20T07:54:19;99942.00;;;10.20
20103;BMP180;10210;52.284;9.892;2023-12-20T07:56:48;99946.00;;;10.20
20103;BMP180;10210;52.284;9.892;2023-12-20T07:59:14;99942.00;;;10.20
20103;BMP180;10210;52.284;9.892;2023-12-20T08:01:40;99929.00;;;10.20
20103;BMP180;10210;52.284;9.892;2023-12-20T08:04:05;99935.00;;;10.20
20103;BMP180;10210;52.284;9.892;2023-12-20T08:06:31;99945.00;;;10.20
20103;BMP180;10210;52.284;9.892;2023-12-20T08:08:57;99939.00;;;10.20
20103;BMP180;10210;52.284;9.892;2023-12-20T08:11:22;99936.00;;;10.20
20103;BMP180;10210;52.284;9.892;2023-12-20T08:13:48;99933.00;;;10.20
20103;BMP180;10210;52.284;9.892;2023-12-20T08:16:14;99948.00;;;10.20
20103;BMP180;10210;52.284;9.892;2023-12-20T08:18:41;99934.00;;;10.20
20103;BMP180;10210;52.284;9.892;2023-12-20T08:21:07;99957.00;;;10.20
20103;BMP180;10210;52.284;9.892;2023-12-20T08:23:34;99952.00;;;10.20
20103;BMP180;10210;52.284;9.892;2023-12-20T08:26:07;99946.00;;;10.20
20103;BMP180;10210;52.284;9.892;2023-12-20T08:28:34;99948.00;;;10.20
20103;BMP180;10210;52.284;9.892;2023-12-20T08:31:00;99934.00;;;10.30
20103;BMP180;10210;52.284;9.892;2023-12-20T08:33:27;99940.00;;;10.30
20103;BMP180;10210;52.284;9.892;2023-12-20T08:35:53;99922.00;;;10.30
20103;BMP180;10210;52.284;9.892;2023-12-20T08:38:18;99925.00;;;10.30
20103;BMP180;10210;52.284;9.892;2023-12-20T08:40:44;99923.00;;;10.30
20103;BMP180;10210;52.284;9.892;2023-12-20T08:43:10;99923.00;;;10.30
20103;BMP180;10210;52.284;9.892;2023-12-20T08:45:36;99911.00;;;10.30
20103;BMP180;10210;52.284;9.892;2023-12-20T08:48:02;99915.00;;;10.30
20103;BMP180;10210;52.284;9.892;2023-12-20T08:50:29;99900.00;;;10.40
20103;BMP180;10210;52.284;9.892;2023-12-20T08:52:54;99901.00;;;10.40
20103;BMP180;10210;52.284;9.892;2023-12-20T08:55:20;99906.00;;;10.40
20103;BMP180;10210;52.284;9.892;2023-12-20T08:57:46;99901.00;;;10.40
20103;BMP180;10210;52.284;9.892;2023-12-20T09:00:14;99896.00;;;10.40
20103;BMP180;10210;52.284;9.892;2023-12-20T09:02:39;99904.00;;;10.40
20103;BMP180;10210;52.284;9.892;2023-12-20T09:05:05;99905.00;;;10.40
20103;BMP180;10210;52.284;9.892;2023-12-20T09:07:31;99900.00;;;10.40
20103;BMP180;10210;52.284;9.892;2023-12-20T09:09:58;99898.00;;;10.50
20103;BMP180;10210;52.284;9.892;2023-12-20T09:12:24;99902.00;;;10.50
20103;BMP180;10210;52.284;9.892;2023-12-20T09:14:52;99887.00;;;10.80
20103;BMP180;10210;52.284;9.892;2023-12-20T09:17:18;99887.00;;;10.60
20103;BMP180;10210;52.284;9.892;2023-12-20T09:19:45;99880.00;;;10.60
20103;BMP180;10210;52.284;9.892;2023-12-20T09:22:12;99874.00;;;10.60
20103;BMP180;10210;52.284;9.892;2023-12-20T09:24:38;99864.00;;;10.60
20103;BMP180;10210;52.284;9.892;2023-12-20T09:27:05;99860.00;;;10.60
20103;BMP180;10210;52.284;9.892;2023-12-20T09:29:31;99851.00;;;10.60
20103;BMP180;10210;52.284;9.892;2023-12-20T09:31:57;99852.00;;;10.60
20103;BMP180;10210;52.284;9.892;2023-12-20T09:34:24;99854.00;;;10.70
20103;BMP180;10210;52.284;9.892;2023-12-20T09:36:51;99864.00;;;10.70
20103;BMP180;10210;52.284;9.892;2023-12-20T09:39:19;99862.00;;;10.80
20103;BMP180;10210;52.284;9.892;2023-12-20T09:42:02;99868.00;;;10.80
20103;BMP180;10210;52.284;9.892;2023-12-20T09:44:29;99856.00;;;10.80
20103;BMP180;10210;52.284;9.892;2023-12-20T09:46:56;99846.00;;;10.90
20103;BMP180;10210;52.284;9.892;2023-12-20T09:49:22;99850.00;;;10.90
20103;BMP180;10210;52.284;9.892;2023-12-20T09:51:50;99855.00;;;10.90
20103;BMP180;10210;52.284;9.892;2023-12-20T09:54:18;99861.00;;;10.90
20103;BMP180;10210;52.284;9.892;2023-12-20T09:56:44;99852.00;;;11.00
20103;BMP180;10210;52.284;9.892;2023-12-20T09:59:10;99845.00;;;11.00
20103;BMP180;10210;52.284;9.892;2023-12-20T10:01:39;99850.00;;;10.90
20103;BMP180;10210;52.284;9.892;2023-12-20T10:04:08;99832.00;;;10.90
20103;BMP180;10210;52.284;9.892;2023-12-20T10:06:44;99831.00;;;10.90
20103;BMP180;10210;52.284;9.892;2023-12-20T10:09:11;99822.00;;;10.90
20103;BMP180;10210;52.284;9.892;2023-12-20T10:11:40;99828.00;;;10.90
20103;BMP180;10210;52.284;9.892;2023-12-20T10:14:07;99822.00;;;10.90
20103;BMP180;10210;52.284;9.892;2023-12-20T10:16:33;99831.00;;;10.80
20103;BMP180;10210;52.284;9.892;2023-12-20T10:19:00;99829.00;;;10.80
20103;BMP180;10210;52.284;9.892;2023-12-20T10:21:27;99826.00;;;11.40
20103;BMP180;10210;52.284;9.892;2023-12-20T10:23:58;99806.00;;;11.10
20103;BMP180;10210;52.284;9.892;2023-12-20T10:26:27;99811.00;;;11.00
20103;BMP180;10210;52.284;9.892;2023-12-20T10:28:59;99818.00;;;10.90
20103;BMP180;10210;52.284;9.892;2023-12-20T10:31:34;99810.00;;;10.90
20103;BMP180;10210;52.284;9.892;2023-12-20T10:34:02;99823.00;;;10.90
20103;BMP180;10210;52.284;9.892;2023-12-20T10:36:31;99806.00;;;10.90
20103;BMP180;10210;52.284;9.892;2023-12-20T10:38:59;99811.00;;;10.90
20103;BMP180;10210;52.284;9.892;2023-12-20T10:41:32;99800.00;;;10.90
20103;BMP180;10210;52.284;9.892;2023-12-20T10:44:04;99790.00;;;10.90
20103;BMP180;10210;52.284;9.892;2023-12-20T10:46:34;99802.00;;;10.90
20103;BMP180;10210;52.284;9.892;2023-12-20T10:49:02;99792.00;;;10.90
20103;BMP180;10210;52.284;9.892;2023-12-20T10:51:31;99782.00;;;10.90
20103;BMP180;10210;52.284;9.892;2023-12-20T10:53:59;99784.00;;;10.90
20103;BMP180;10210;52.284;9.892;2023-12-20T10:56:28;99791.00;;;10.90
20103;BMP180;10210;52.284;9.892;2023-12-20T10:58:57;99779.00;;;10.90
20103;BMP180;10210;52.284;9.892;2023-12-20T11:01:27;99789.00;;;10.90
20103;BMP180;10210;52.284;9.892;2023-12-20T11:03:54;99775.00;;;10.90
20103;BMP180;10210;52.284;9.892;2023-12-20T11:06:36;99781.00;;;10.80
20103;BMP180;10210;52.284;9.892;2023-12-20T11:09:20;99775.00;;;10.80
20103;BMP180;10210;52.284;9.892;2023-12-20T11:12:08;99783.00;;;10.80
20103;BMP180;10210;52.284;9.892;2023-12-20T11:14:46;99774.00;;;10.80
20103;BMP180;10210;52.284;9.892;2023-12-20T11:17:13;99779.00;;;10.80
20103;BMP180;10210;52.284;9.892;2023-12-20T11:22:25;99788.00;;;10.80
20103;BMP180;10210;52.284;9.892;2023-12-20T11:24:53;99785.00;;;10.80
20103;BMP180;10210;52.284;9.892;2023-12-20T11:27:20;99774.00;;;10.80
20103;BMP180;10210;52.284;9.892;2023-12-20T11:29:54;99775.00;;;10.80
20103;BMP180;10210;52.284;9.892;2023-12-20T11:35:00;99771.00;;;10.80
20103;BMP180;10210;52.284;9.892;2023-12-20T11:37:36;99779.00;;;10.90
20103;BMP180;10210;52.284;9.892;2023-12-20T11:40:07;99772.00;;;10.90
20103;BMP180;10210;52.284;9.892;2023-12-20T11:42:43;99772.00;;;10.90
20103;BMP180;10210;52.284;9.892;2023-12-20T11:45:24;99779.00;;;10.90
20103;BMP180;10210;52.284;9.892;2023-12-20T11:47:51;99780.00;;;10.90
20103;BMP180;10210;52.284;9.892;2023-12-20T11:50:19;99775.00;;;10.90
20103;BMP180;10210;52.284;9.892;2023-12-20T11:52:51;99771.00;;;10.90
20103;BMP180;10210;52.284;9.892;2023-12-20T11:55:17;99773.00;;;10.80
20103;BMP180;10210;52.284;9.892;2023-12-20T11:57:44;99781.00;;;10.80
20103;BMP180;10210;52.284;9.892;2023-12-20T12:00:11;99796.00;;;10.70
20103;BMP180;10210;52.284;9.892;2023-12-20T12:02:36;99823.00;;;10.70
20103;BMP180;10210;52.284;9.892;2023-12-20T12:05:02;99792.00;;;10.60
20103;BMP180;10210;52.284;9.892;2023-12-20T12:07:31;99789.00;;;10.50
20103;BMP180;10210;52.284;9.892;2023-12-20T12:09:57;99791.00;;;10.40
20103;BMP180;10210;52.284;9.892;2023-12-20T12:12:24;99792.00;;;10.30
20103;BMP180;10210;52.284;9.892;2023-12-20T12:14:50;99783.00;;;10.20
20103;BMP180;10210;52.284;9.892;2023-12-20T12:17:16;99787.00;;;10.20
20103;BMP180;10210;52.284;9.892;2023-12-20T12:19:43;99796.00;;;10.10
20103;BMP180;10210;52.284;9.892;2023-12-20T12:22:14;99785.00;;;10.10
20103;BMP180;10210;52.284;9.892;2023-12-20T12:24:43;99776.00;;;10.00
20103;BMP180;10210;52.284;9.892;2023-12-20T12:27:10;99783.00;;;10.00
20103;BMP180;10210;52.284;9.892;2023-12-20T12:29:37;99783.00;;;9.90
20103;BMP180;10210;52.284;9.892;2023-12-20T12:32:09;99783.00;;;9.90
20103;BMP180;10210;52.284;9.892;2023-12-20T12:34:39;99774.00;;;9.90
20103;BMP180;10210;52.284;9.892;2023-12-20T12:37:05;99764.00;;;9.90
20103;BMP180;10210;52.284;9.892;2023-12-20T12:39:30;99775.00;;;9.90
20103;BMP180;10210;52.284;9.892;2023-12-20T12:41:56;99780.00;;;9.90
20103;BMP180;10210;52.284;9.892;2023-12-20T12:44:23;99781.00;;;9.80
20103;BMP180;10210;52.284;9.892;2023-12-20T12:46:52;99757.00;;;9.80
20103;BMP180;10210;52.284;9.892;2023-12-20T12:49:21;99754.00;;;9.80
20103;BMP180;10210;52.284;9.892;2023-12-20T12:51:48;99761.00;;;9.80
20103;BMP180;10210;52.284;9.892;2023-12-20T12:54:13;99762.00;;;9.80
20103;BMP180;10210;52.284;9.892;2023-12-20T12:56:42;99768.00;;;9.80
20103;BMP180;10210;52.284;9.892;2023-12-20T12:59:08;99760.00;;;9.80
20103;BMP180;10210;52.284;9.892;2023-12-20T13:01:34;99754.00;;;9.70
20103;BMP180;10210;52.284;9.892;2023-12-20T13:04:00;99758.00;;;9.70
20103;BMP180;10210;52.284;9.892;2023-12-20T13:06:28;99754.00;;;9.70
20103;BMP180;10210;52.284;9.892;2023-12-20T13:08:54;99754.00;;;9.70
20103;BMP180;10210;52.284;9.892;2023-12-20T13:11:20;99759.00;;;9.70
20103;BMP180;10210;52.284;9.892;2023-12-20T13:13:46;99754.00;;;9.80
20103;BMP180;10210;52.284;9.892;2023-12-20T13:16:12;99762.00;;;9.80
20103;BMP180;10210;52.284;9.892;2023-12-20T13:18:38;99766.00;;;9.80
20103;BMP180;10210;52.284;9.892;2023-12-20T13:21:08;99763.00;;;9.80
20103;BMP180;10210;52.284;9.892;2023-12-20T13:23:34;99760.00;;;9.80
20103;BMP180;10210;52.284;9.892;2023-12-20T13:26:00;99771.00;;;9.90
20103;BMP180;10210;52.284;9.892;2023-12-20T13:28:27;99773.00;;;9.90
20103;BMP180;10210;52.284;9.892;2023-12-20T13:30:53;99761.00;;;10.00
20103;BMP180;10210;52.284;9.892;2023-12-20T13:33:18;99759.00;;;10.00
20103;BMP180;10210;52.284;9.892;2023-12-20T13:35:44;99763.00;;;10.00
20103;BMP180;10210;52.284;9.892;2023-12-20T13:38:10;99767.00;;;10.00
20103;BMP180;10210;52.284;9.892;2023-12-20T13:40:37;99763.00;;;10.10
20103;BMP180;10210;52.284;9.892;2023-12-20T13:43:03;99765.00;;;10.10
20103;BMP180;10210;52.284;9.892;2023-12-20T13:45:29;99760.00;;;10.10
20103;BMP180;10210;52.284;9.892;2023-12-20T13:47:55;99765.00;;;10.10
20103;BMP180;10210;52.284;9.892;2023-12-20T13:50:21;99768.00;;;10.10
20103;BMP180;10210;52.284;9.892;2023-12-20T13:52:47;99760.00;;;10.20
20103;BMP180;10210;52.284;9.892;2023-12-20T13:55:13;99765.00;;;10.20
20103;BMP180;10210;52.284;9.892;2023-12-20T13:57:39;99760.00;;;10.20
20103;BMP180;10210;52.284;9.892;2023-12-20T14:00:08;99763.00;;;10.20
20103;BMP180;10210;52.284;9.892;2023-12-20T14:02:40;99755.00;;;10.20
20103;BMP180;10210;52.284;9.892;2023-12-20T14:05:07;99747.00;;;10.20
20103;BMP180;10210;52.284;9.892;2023-12-20T14:07:33;99754.00;;;10.20
20103;BMP180;10210;52.284;9.892;2023-12-20T14:09:59;99753.00;;;10.20